Time;durP1;ratioP1;P1;durP2;ratioP2;P2;SDS_P1;SDS_P2;PMS_P1;PMS_P2;Temp;Humidity;BMP_temperature;BMP_pressure;BME280_temperature;BME280_humidity;BME280_pressure;Samples;Min_cycle;Max_cycle;Signal;HPM_P1;HPM_P2
2021/12/30 00:01:28;;;;;;;49.60;8.48;;;;;;;8.80;100.00;101113.09;5050576;28;20174;-75
2021/12/30 00:03:54;;;;;;;44.50;8.35;;;;;;;8.85;100.00;101120.69;5050418;28;20056;-74
2021/12/30 00:06:22;;;;;;;45.28;8.57;;;;;;;8.83;100.00;101120.81;5051432;28;20072;-74
2021/12/30 00:08:49;;;;;;;43.70;8.57;;;;;;;8.87;100.00;101113.44;5054321;28;20128;-73
2021/12/30 00:11:15;;;;;;;42.60;8.85;;;;;;;8.88;100.00;101113.31;5054289;28;20112;-74
2021/12/30 00:13:44;;;;;;;46.53;9.52;;;;;;;8.84;100.00;101117.22;5054149;28;20430;-72
2021/12/30 00:16:14;;;;;;;42.95;8.52;;;;;;;8.88;100.00;101115.13;5054344;28;20033;-73
2021/12/30 00:18:39;;;;;;;46.08;9.48;;;;;;;8.94;100.00;101118.19;5054023;28;20047;-73
2021/12/30 00:21:05;;;;;;;50.72;8.80;;;;;;;8.98;100.00;101118.75;5054530;28;20033;-73
2021/12/30 00:23:31;;;;;;;51.13;10.05;;;;;;;9.06;100.00;101118.16;5054254;28;20124;-73
2021/12/30 00:25:56;;;;;;;49.28;9.73;;;;;;;9.06;100.00;101116.34;5054118;28;20055;-73
2021/12/30 00:28:23;;;;;;;51.70;10.02;;;;;;;9.07;100.00;101114.53;5054483;28;20360;-73
2021/12/30 00:30:50;;;;;;;51.17;10.40;;;;;;;9.09;100.00;101124.06;5052648;28;20467;-73
2021/12/30 00:33:17;;;;;;;44.25;9.13;;;;;;;9.10;100.00;101117.78;5054153;28;20076;-73
2021/12/30 00:35:43;;;;;;;55.50;9.80;;;;;;;9.10;100.00;101124.91;5054137;28;20037;-73
2021/12/30 00:38:09;;;;;;;53.13;10.68;;;;;;;9.12;100.00;101125.63;5054048;28;20095;-73
2021/12/30 00:40:36;;;;;;;63.58;10.00;;;;;;;9.14;100.00;101119.22;5054043;28;20033;-74
2021/12/30 00:43:03;;;;;;;67.55;10.18;;;;;;;9.21;100.00;101116.94;5053946;28;20445;-73
2021/12/30 00:45:30;;;;;;;61.65;10.30;;;;;;;9.20;100.00;101122.38;5053544;28;20036;-73
2021/12/30 00:47:56;;;;;;;67.15;9.75;;;;;;;9.20;100.00;101125.84;5053582;28;20059;-72
2021/12/30 00:50:22;;;;;;;62.80;10.85;;;;;;;9.15;100.00;101120.06;5053740;28;20032;-73
2021/12/30 00:52:48;;;;;;;57.55;10.10;;;;;;;9.22;100.00;101126.56;5053537;28;20044;-73
2021/12/30 00:55:13;;;;;;;58.28;10.60;;;;;;;9.21;100.00;101124.03;5035919;28;20033;-73
2021/12/30 00:57:41;;;;;;;57.70;9.80;;;;;;;9.18;100.00;101114.50;5053314;28;20077;-73
2021/12/30 01:00:09;;;;;;;49.30;8.85;;;;;;;9.21;100.00;101122.25;5053627;28;20049;-73
2021/12/30 01:02:35;;;;;;;47.72;8.93;;;;;;;9.30;100.00;101120.63;5053627;28;20029;-74
2021/12/30 01:05:00;;;;;;;48.85;8.85;;;;;;;9.34;100.00;101119.44;5053898;28;20457;-73
2021/12/30 01:07:26;;;;;;;44.42;8.35;;;;;;;9.34;100.00;101119.44;5053976;28;20049;-73
2021/12/30 01:09:51;;;;;;;37.10;7.97;;;;;;;9.39;100.00;101113.75;5053939;28;20351;-73
2021/12/30 01:12:19;;;;;;;40.15;8.10;;;;;;;9.42;100.00;101109.03;5053566;28;20033;-74
2021/12/30 01:14:46;;;;;;;42.35;8.57;;;;;;;9.46;100.00;101112.28;5053139;28;20384;-73
2021/12/30 01:17:19;;;;;;;38.40;8.30;;;;;;;9.46;100.00;101110.44;5052021;28;20041;-73
2021/12/30 01:19:45;;;;;;;35.38;7.68;;;;;;;9.48;100.00;101111.19;5052785;28;20033;-73
2021/12/30 01:22:27;;;;;;;37.88;9.00;;;;;;;9.49;100.00;101115.53;5053334;28;20048;-73
2021/12/30 01:24:52;;;;;;;;;;;;;;;9.51;100.00;101124.22;5053734;28;20036;-73
2021/12/30 01:27:19;;;;;;;42.10;11.93;;;;;;;9.53;100.00;101153.31;5053596;28;19917;-73
2021/12/30 01:29:45;;;;;;;46.83;13.52;;;;;;;9.60;100.00;101141.22;5053154;28;20025;-73
2021/12/30 01:32:10;;;;;;;42.45;13.30;;;;;;;9.63;100.00;101146.28;5053180;28;20444;-73
2021/12/30 01:34:36;;;;;;;41.65;13.02;;;;;;;9.68;100.00;101160.03;5053331;28;20045;-74
2021/12/30 01:37:04;;;;;;;44.17;12.02;;;;;;;9.69;100.00;101174.19;5051849;28;20132;-73
2021/12/30 01:39:31;;;;;;;34.90;10.25;;;;;;;9.68;100.00;101181.28;5053097;28;20391;-73
2021/12/30 01:41:58;;;;;;;24.60;7.45;;;;;;;9.76;100.00;101171.84;5052825;28;20150;-72
2021/12/30 01:44:24;;;;;;;27.23;8.07;;;;;;;9.74;100.00;101166.66;5053104;28;20037;-73
2021/12/30 01:46:50;;;;;;;27.83;8.20;;;;;;;9.74;100.00;101164.00;5052534;28;20059;-73
2021/12/30 01:49:16;;;;;;;33.13;8.15;;;;;;;9.75;100.00;101168.34;5052820;28;20029;-74
2021/12/30 01:51:43;;;;;;;25.17;7.43;;;;;;;9.76;100.00;101187.78;5052706;28;20029;-73
2021/12/30 01:54:09;;;;;;;20.30;6.30;;;;;;;9.79;100.00;101169.78;5052753;28;20495;-73
2021/12/30 01:56:35;;;;;;;29.42;8.35;;;;;;;9.75;100.00;101171.00;5052715;28;20033;-73
2021/12/30 01:59:02;;;;;;;20.02;7.18;;;;;;;9.76;100.00;101171.84;5052649;28;20469;-73
2021/12/30 02:01:28;;;;;;;27.95;7.10;;;;;;;9.76;100.00;101175.34;5052410;28;20025;-73
2021/12/30 02:03:54;;;;;;;24.45;7.45;;;;;;;9.73;100.00;101170.28;5052687;28;20137;-73
2021/12/30 02:06:20;;;;;;;26.17;8.40;;;;;;;9.70;100.00;101171.38;5052154;28;20527;-73
2021/12/30 02:08:45;;;;;;;22.25;7.32;;;;;;;9.69;100.00;101172.34;5052466;28;20116;-73
2021/12/30 02:11:10;;;;;;;20.73;6.80;;;;;;;9.66;100.00;101164.63;5052012;28;20204;-73
2021/12/30 02:13:36;;;;;;;23.83;8.13;;;;;;;9.63;100.00;101166.69;5052272;28;20029;-73
2021/12/30 02:16:02;;;;;;;19.48;7.78;;;;;;;9.65;100.00;101162.09;5052112;28;20029;-73
2021/12/30 02:18:31;;;;;;;21.65;7.70;;;;;;;9.63;100.00;101167.53;5050712;28;20033;-73
2021/12/30 02:20:59;;;;;;;28.88;9.15;;;;;;;9.62;100.00;101170.31;5051860;28;20095;-73
2021/12/30 02:23:30;;;;;;;27.95;8.82;;;;;;;9.58;100.00;101163.56;5052082;28;20116;-73
2021/12/30 02:25:59;;;;;;;23.55;8.35;;;;;;;9.60;100.00;101166.94;5051827;28;20352;-73
2021/12/30 02:28:27;;;;;;;22.25;8.85;;;;;;;9.57;100.00;101169.84;5051984;28;20091;-73
2021/12/30 02:30:54;;;;;;;24.58;9.32;;;;;;;9.56;100.00;101176.13;5051396;28;20112;-73
2021/12/30 02:33:21;;;;;;;31.33;9.70;;;;;;;9.56;100.00;101187.59;5051952;28;20100;-73
2021/12/30 02:35:46;;;;;;;26.63;8.35;;;;;;;9.57;100.00;101196.41;5051646;28;20037;-73
2021/12/30 02:38:12;;;;;;;31.00;9.23;;;;;;;9.57;100.00;101194.59;5051710;28;20116;-73
2021/12/30 02:40:42;;;;;;;25.40;9.50;;;;;;;9.61;100.00;101195.19;5051859;28;20041;-73
2021/12/30 02:43:13;;;;;;;21.42;8.55;;;;;;;9.62;100.00;101181.78;5051554;28;20448;-73
2021/12/30 02:45:38;;;;;;;19.20;8.83;;;;;;;9.63;100.00;101196.75;5051820;28;20039;-73
2021/12/30 02:48:04;;;;;;;31.65;9.10;;;;;;;9.64;100.00;101193.16;5051411;28;20136;-73
2021/12/30 02:50:29;;;;;;;27.80;9.57;;;;;;;9.65;100.00;101201.94;5051538;28;20469;-73
2021/12/30 02:52:55;;;;;;;24.75;9.40;;;;;;;9.63;100.00;101203.88;5050970;28;20036;-74
2021/12/30 02:55:20;;;;;;;27.95;9.15;;;;;;;9.64;100.00;101205.56;5051168;28;20025;-73
2021/12/30 02:57:46;;;;;;;31.00;8.95;;;;;;;9.60;100.00;101191.69;5051371;28;20358;-73
2021/12/30 03:00:11;;;;;;;29.98;9.43;;;;;;;9.61;100.00;101204.00;5051281;28;20115;-73
2021/12/30 03:02:38;;;;;;;28.20;9.38;;;;;;;9.60;100.00;101197.00;5051249;28;20492;-73
2021/12/30 03:05:06;;;;;;;31.13;10.63;;;;;;;9.64;100.00;101187.84;5051191;28;20112;-73
2021/12/30 03:07:31;;;;;;;31.65;10.57;;;;;;;9.68;100.00;101177.78;5050800;28;20037;-73
2021/12/30 03:09:57;;;;;;;41.03;11.20;;;;;;;9.67;100.00;101189.38;5050834;28;20345;-73
2021/12/30 03:12:22;;;;;;;30.35;10.93;;;;;;;9.72;100.00;101181.88;5051228;28;20029;-72
2021/12/30 03:14:47;;;;;;;39.38;12.30;;;;;;;9.72;100.00;101181.88;5050986;28;20434;-73
2021/12/30 03:17:13;;;;;;;34.63;11.88;;;;;;;9.76;100.00;101170.03;5051372;28;20414;-73
2021/12/30 03:19:38;;;;;;;32.88;11.93;;;;;;;9.76;100.00;101187.78;5050566;28;20032;-73
2021/12/30 03:22:04;;;;;;;38.58;13.38;;;;;;;9.76;100.00;101174.50;5049651;28;20476;-73
2021/12/30 03:24:29;;;;;;;36.90;12.10;;;;;;;9.80;100.00;101181.25;5049470;28;20123;-73
2021/12/30 03:26:54;;;;;;;39.00;11.98;;;;;;;9.77;100.00;101179.69;5050678;28;20136;-73
2021/12/30 03:29:20;;;;;;;35.58;10.48;;;;;;;9.76;100.00;101183.31;5050917;28;20441;-74
2021/12/30 03:31:46;;;;;;;33.60;11.07;;;;;;;9.76;100.00;101178.00;5050827;28;20429;-72
2021/12/30 03:34:11;;;;;;;32.60;11.13;;;;;;;9.75;100.00;101192.28;5051229;28;20044;-73
2021/12/30 03:36:37;;;;;;;39.08;12.05;;;;;;;9.74;100.00;101206.50;5049853;28;20365;-73
2021/12/30 03:39:04;;;;;;;42.75;12.30;;;;;;;9.75;100.00;101217.97;5050592;28;20064;-73
2021/12/30 03:41:30;;;;;;;44.30;11.75;;;;;;;9.74;100.00;101211.84;5049885;28;20461;-73
2021/12/30 03:44:00;;;;;;;45.13;12.23;;;;;;;9.71;100.00;101215.56;5050974;28;20162;-73
2021/12/30 03:46:25;;;;;;;38.15;10.90;;;;;;;9.73;100.00;101212.78;5050163;28;20446;-73
2021/12/30 03:48:51;;;;;;;30.80;10.90;;;;;;;9.68;100.00;101210.50;5050577;28;20057;-73
2021/12/30 03:51:24;;;;;;;33.17;10.98;;;;;;;9.68;100.00;101207.84;5050317;28;20470;-73
2021/12/30 03:53:52;;;;;;;40.17;11.32;;;;;;;9.71;100.00;101206.75;5050292;28;20057;-73
2021/12/30 03:56:21;;;;;;;34.03;10.40;;;;;;;9.76;100.00;101201.06;5050500;28;20040;-73
2021/12/30 03:58:47;;;;;;;34.10;9.85;;;;;;;9.77;100.00;101200.94;5050529;28;20048;-73
2021/12/30 04:01:16;;;;;;;33.00;10.40;;;;;;;9.77;100.00;101203.59;5050429;28;20445;-73
2021/12/30 04:03:42;;;;;;;38.00;9.80;;;;;;;9.77;100.00;101190.31;5050544;28;20040;-73
2021/12/30 04:06:08;;;;;;;34.65;10.27;;;;;;;9.79;100.00;101182.22;5050375;28;20410;-75
2021/12/30 04:08:34;;;;;;;33.90;8.20;;;;;;;9.84;100.00;101182.72;5050561;28;20097;-72
2021/12/30 04:10:59;;;;;;;33.08;8.48;;;;;;;9.87;100.00;101193.91;5050673;28;20087;-72
2021/12/30 04:13:25;;;;;;;26.70;7.30;;;;;;;9.97;100.00;101201.13;5050836;28;20033;-73
2021/12/30 04:15:52;;;;;;;25.50;7.55;;;;;;;9.96;100.00;101204.78;5048929;28;20047;-73
2021/12/30 04:18:17;;;;;;;29.35;6.50;;;;;;;9.97;100.00;101196.69;5050211;28;20359;-73
2021/12/30 04:20:43;;;;;;;27.00;6.72;;;;;;;10.02;100.00;101199.78;5050494;28;20033;-73
2021/12/30 04:23:08;;;;;;;33.95;7.72;;;;;;;10.02;100.00;101199.78;5050322;28;20472;-73
2021/12/30 04:25:34;;;;;;;29.55;7.00;;;;;;;10.02;100.00;101205.09;5049322;28;20036;-72
2021/12/30 04:28:00;;;;;;;22.02;4.78;;;;;;;10.09;100.00;101204.59;5050195;28;20033;-75
2021/12/30 04:30:26;;;;;;;22.73;4.88;;;;;;;10.17;100.00;101210.97;5050591;28;20029;-72
2021/12/30 04:32:52;;;;;;;24.15;4.80;;;;;;;10.20;100.00;101205.38;5050610;28;20032;-75
2021/12/30 04:35:18;;;;;;;32.22;5.45;;;;;;;10.27;100.00;101205.75;5050390;28;20029;-73
2021/12/30 04:37:44;;;;;;;22.27;4.90;;;;;;;10.31;100.00;101203.66;5050397;28;20033;-74
2021/12/30 04:40:11;;;;;;;25.98;4.63;;;;;;;10.33;100.00;101212.34;5050226;28;20380;-73
2021/12/30 04:42:36;;;;;;;26.13;4.93;;;;;;;10.37;100.00;101197.84;5050238;28;20128;-74
2021/12/30 04:45:03;;;;;;;25.20;4.65;;;;;;;10.34;100.00;101208.75;5050294;28;20177;-76
2021/12/30 04:47:29;;;;;;;23.15;3.92;;;;;;;10.39;100.00;101190.59;5049882;28;20075;-74
2021/12/30 04:49:57;;;;;;;24.23;4.72;;;;;;;10.38;100.00;101207.53;5049716;28;20097;-74
2021/12/30 04:52:23;;;;;;;17.85;3.95;;;;;;;10.36;100.00;101193.50;5051291;28;20098;-74
2021/12/30 04:54:49;;;;;;;32.25;5.07;;;;;;;10.33;100.00;101196.38;5053809;28;20156;-72
2021/12/30 04:57:15;;;;;;;28.10;4.72;;;;;;;10.31;100.00;101196.50;5053606;28;20048;-74
2021/12/30 04:59:40;;;;;;;24.95;5.47;;;;;;;10.29;100.00;101210.94;5053552;28;20342;-74
2021/12/30 05:02:06;;;;;;;23.95;6.00;;;;;;;10.23;100.00;101196.31;5053162;28;20044;-74
2021/12/30 05:04:31;;;;;;;22.27;5.45;;;;;;;10.16;100.00;101192.47;5053445;28;20116;-73
2021/12/30 05:06:56;;;;;;;24.13;5.68;;;;;;;10.14;100.00;101202.41;5053316;28;20392;-73
2021/12/30 05:09:22;;;;;;;20.40;5.55;;;;;;;10.11;100.00;101192.88;5053366;28;20071;-73
2021/12/30 05:11:47;;;;;;;21.52;5.65;;;;;;;10.09;100.00;101197.47;5053534;28;20025;-74
2021/12/30 05:14:13;;;;;;;20.73;5.43;;;;;;;10.11;100.00;101202.66;5052999;28;20032;-73
2021/12/30 05:16:39;;;;;;;18.25;5.28;;;;;;;10.09;100.00;101213.44;5053210;28;20506;-73
2021/12/30 05:19:04;;;;;;;17.45;5.07;;;;;;;10.11;100.00;101214.13;5053368;28;20085;-74
2021/12/30 05:21:30;;;;;;;17.65;5.68;;;;;;;10.10;100.00;101217.75;5052640;28;20116;-73
2021/12/30 05:23:56;;;;;;;23.25;5.88;;;;;;;10.10;100.00;101209.78;5052900;28;20041;-73
2021/12/30 05:26:25;;;;;;;25.85;6.03;;;;;;;10.06;100.00;101218.97;5052995;28;20116;-73
2021/12/30 05:28:50;;;;;;;22.65;5.90;;;;;;;10.02;100.00;101209.59;5052920;28;20045;-73
2021/12/30 05:31:16;;;;;;;19.17;5.53;;;;;;;10.00;100.00;101200.88;5053234;28;20488;-73
2021/12/30 05:33:41;;;;;;;28.83;6.00;;;;;;;9.95;100.00;101195.94;5051312;28;20128;-74
2021/12/30 05:36:06;;;;;;;28.40;5.60;;;;;;;9.95;100.00;101195.94;5052927;28;20033;-74
2021/12/30 05:38:32;;;;;;;20.40;5.00;;;;;;;9.97;100.00;101209.09;5053016;28;20091;-74
2021/12/30 05:40:58;;;;;;;22.20;5.75;;;;;;;9.94;100.00;101199.59;5034475;28;20036;-73
2021/12/30 05:43:23;;;;;;;27.33;5.10;;;;;;;9.98;100.00;101216.13;5053381;28;20427;-74
2021/12/30 05:45:49;;;;;;;25.63;4.70;;;;;;;10.01;100.00;101222.00;5053063;28;20099;-74
2021/12/30 05:48:14;;;;;;;20.77;4.70;;;;;;;10.02;100.00;101244.16;5052746;28;20039;-74
2021/12/30 05:50:39;;;;;;;23.88;5.32;;;;;;;10.02;100.00;101244.16;5053052;28;20373;-74
2021/12/30 05:53:05;;;;;;;25.45;4.50;;;;;;;10.02;100.00;101247.63;5052541;28;20124;-73
2021/12/30 05:55:30;;;;;;;30.95;5.05;;;;;;;10.04;100.00;101260.81;5052371;28;20057;-74
2021/12/30 05:57:57;;;;;;;22.67;4.53;;;;;;;10.06;100.00;101246.44;5053039;28;20029;-74
2021/12/30 06:00:24;;;;;;;19.08;4.85;;;;;;;10.09;100.00;101261.28;5052685;28;20040;-74
2021/12/30 06:02:50;;;;;;;24.92;4.78;;;;;;;10.12;100.00;101236.25;5052921;28;20044;-74
2021/12/30 06:05:16;;;;;;;21.83;3.83;;;;;;;10.15;100.00;101255.47;5052064;28;20041;-73
2021/12/30 06:07:42;;;;;;;23.85;4.82;;;;;;;10.17;100.00;101261.50;5052215;28;20412;-75
2021/12/30 06:10:08;;;;;;;28.13;4.13;;;;;;;10.17;100.00;101245.53;5052918;28;20068;-77
2021/12/30 06:12:34;;;;;;;19.08;3.55;;;;;;;10.19;100.00;101258.69;5052420;28;20041;-77
2021/12/30 06:15:00;;;;;;;17.95;3.75;;;;;;;10.30;100.00;101261.34;5052499;28;20035;-77
2021/12/30 06:17:26;;;;;;;25.17;4.32;;;;;;;10.33;100.00;101265.53;5052394;28;20033;-75
2021/12/30 06:19:51;;;;;;;17.02;3.42;;;;;;;10.37;100.00;101257.19;5052351;28;20075;-75
2021/12/30 06:22:17;;;;;;;17.30;3.90;;;;;;;10.45;100.00;101258.38;5052232;28;20052;-75
2021/12/30 06:24:43;;;;;;;16.10;3.30;;;;;;;10.45;100.00;101251.25;5052274;28;20064;-73
2021/12/30 06:27:08;;;;;;;17.10;3.25;;;;;;;10.44;100.00;101260.22;5051730;28;20036;-74
2021/12/30 06:29:34;;;;;;;17.70;3.63;;;;;;;10.45;100.00;101266.38;5050738;28;20040;-76
2021/12/30 06:32:00;;;;;;;23.20;3.78;;;;;;;10.42;100.00;101259.50;5052148;28;20453;-76
2021/12/30 06:34:25;;;;;;;15.35;3.67;;;;;;;10.43;100.00;101271.81;5052247;28;20048;-76
2021/12/30 06:36:51;;;;;;;16.17;3.90;;;;;;;10.38;100.00;101252.75;5050988;28;20033;-76
2021/12/30 06:39:16;;;;;;;15.70;4.60;;;;;;;10.34;100.00;101264.59;5052000;28;20033;-76
2021/12/30 06:41:42;;;;;;;19.50;4.43;;;;;;;10.31;100.00;101265.66;5051809;28;20366;-75
2021/12/30 06:44:07;;;;;;;18.15;4.22;;;;;;;10.27;100.00;101274.88;5052177;28;20037;-75
2021/12/30 06:46:33;;;;;;;13.85;4.72;;;;;;;10.21;100.00;101283.34;5051295;28;20139;-75
2021/12/30 06:48:59;;;;;;;18.00;5.18;;;;;;;10.15;100.00;101283.84;5051970;28;20335;-75
2021/12/30 06:51:27;;;;;;;17.65;4.78;;;;;;;10.09;100.00;101293.19;5051743;28;20029;-77
2021/12/30 06:53:54;;;;;;;18.63;5.28;;;;;;;10.06;100.00;101291.63;5051493;28;20098;-81
2021/12/30 06:56:21;;;;;;;13.13;4.70;;;;;;;10.06;100.00;101312.03;5051862;28;20202;-76
2021/12/30 06:58:46;;;;;;;16.85;4.57;;;;;;;10.02;100.00;101284.84;5051473;28;20033;-76
2021/12/30 07:01:12;;;;;;;19.98;4.65;;;;;;;10.00;100.00;101299.22;5051448;28;20063;-74
2021/12/30 07:03:37;;;;;;;11.77;4.15;;;;;;;9.99;100.00;101306.38;5051432;28;20033;-76
2021/12/30 07:06:03;;;;;;;13.02;4.40;;;;;;;9.99;100.00;101293.09;5051112;28;20037;-75
2021/12/30 07:08:28;;;;;;;16.02;4.80;;;;;;;9.97;100.00;101307.47;5050850;28;20496;-74
2021/12/30 07:10:53;;;;;;;20.98;5.28;;;;;;;9.95;100.00;101296.94;5051062;28;20446;-78
2021/12/30 07:13:19;;;;;;;21.27;6.28;;;;;;;9.91;100.00;101292.84;5050790;28;20124;-78
2021/12/30 07:15:44;;;;;;;21.55;5.63;;;;;;;9.92;100.00;101281.25;5050262;28;20429;-77
2021/12/30 07:18:10;;;;;;;31.30;6.53;;;;;;;9.90;100.00;101285.84;5050570;28;20086;-79
2021/12/30 07:20:35;;;;;;;35.90;7.05;;;;;;;9.88;100.00;101296.63;5051149;28;20119;-79
2021/12/30 07:23:01;;;;;;;40.13;7.25;;;;;;;9.85;100.00;101302.19;5050999;28;20121;-77
2021/12/30 07:25:26;;;;;;;40.33;8.98;;;;;;;9.85;100.00;101299.53;5050694;28;20028;-78
2021/12/30 07:27:54;;;;;;;41.63;8.02;;;;;;;9.85;100.00;101301.31;5050573;28;20116;-79
2021/12/30 07:30:22;;;;;;;43.85;8.23;;;;;;;9.82;100.00;101314.84;5050745;28;20102;-76
2021/12/30 07:32:48;;;;;;;38.70;8.00;;;;;;;9.79;100.00;101307.13;5050779;28;20033;-76
2021/12/30 07:35:15;;;;;;;41.40;7.68;;;;;;;9.83;100.00;101314.72;5050834;28;20029;-75
2021/12/30 07:37:41;;;;;;;48.00;8.45;;;;;;;9.81;100.00;101316.66;5050579;28;20047;-75
2021/12/30 07:40:07;;;;;;;50.10;8.00;;;;;;;9.79;100.00;101323.06;5050678;28;20087;-76
2021/12/30 07:42:32;;;;;;;43.63;7.43;;;;;;;9.81;100.00;101334.44;5050427;28;20028;-76
2021/12/30 07:44:58;;;;;;;46.95;7.43;;;;;;;9.84;100.00;101350.16;5050597;28;20354;-76
2021/12/30 07:47:23;;;;;;;45.33;7.95;;;;;;;9.81;100.00;101345.91;5050583;28;20112;-76
2021/12/30 07:49:49;;;;;;;44.45;8.18;;;;;;;9.81;100.00;101361.03;5050351;28;20158;-77
2021/12/30 07:52:15;;;;;;;41.78;7.45;;;;;;;9.78;100.00;101356.78;5050556;28;20458;-76
2021/12/30 07:54:43;;;;;;;48.30;8.80;;;;;;;9.83;100.00;101354.59;5050310;28;20416;-74
2021/12/30 07:57:09;;;;;;;46.17;7.80;;;;;;;9.87;100.00;101352.56;5050785;28;20029;-75
2021/12/30 07:59:34;;;;;;;54.22;9.30;;;;;;;9.91;100.00;101358.47;5050443;28;20036;-74
2021/12/30 08:02:00;;;;;;;43.63;8.07;;;;;;;9.95;100.00;101363.41;5049083;28;20411;-75
2021/12/30 08:04:25;;;;;;;44.10;7.10;;;;;;;9.97;100.00;101365.94;5050570;28;20040;-74
2021/12/30 08:06:51;;;;;;;54.20;9.90;;;;;;;10.00;100.00;101379.00;5048186;28;20048;-74
2021/12/30 08:09:16;;;;;;;57.65;8.57;;;;;;;10.04;100.00;101370.63;5049865;28;20033;-73
2021/12/30 08:11:41;;;;;;;43.92;7.38;;;;;;;10.09;100.00;101372.09;5050001;28;20469;-77
2021/12/30 08:14:07;;;;;;;54.55;7.72;;;;;;;10.06;100.00;101376.69;5050069;28;20039;-76
2021/12/30 08:16:32;;;;;;;39.72;7.45;;;;;;;10.07;100.00;101372.22;5050159;28;20436;-79
2021/12/30 08:18:58;;;;;;;48.65;7.30;;;;;;;10.09;100.00;101380.06;5050276;28;20032;-77
2021/12/30 08:21:24;;;;;;;48.20;8.52;;;;;;;10.09;100.00;101370.31;5049877;28;20052;-75
2021/12/30 08:23:51;;;;;;;48.05;8.45;;;;;;;10.11;100.00;101373.66;5049881;28;20036;-75
2021/12/30 08:26:18;;;;;;;56.58;8.55;;;;;;;10.08;100.00;101384.56;5050117;28;20124;-75
2021/12/30 08:28:43;;;;;;;54.08;8.63;;;;;;;10.11;100.00;101386.13;5053330;28;20043;-74
2021/12/30 08:31:09;;;;;;;53.30;8.23;;;;;;;10.11;100.00;101389.63;5053753;28;20021;-77
2021/12/30 08:33:34;;;;;;;65.90;8.35;;;;;;;10.11;100.00;101391.44;5054023;28;20044;-75
2021/12/30 08:36:00;;;;;;;56.17;9.75;;;;;;;10.10;100.00;101392.41;5054040;28;20124;-75
2021/12/30 08:38:25;;;;;;;54.70;8.18;;;;;;;10.11;100.00;101388.78;5053962;28;20116;-75
2021/12/30 08:40:51;;;;;;;60.55;8.80;;;;;;;10.11;100.00;101410.06;5054030;28;20029;-76
2021/12/30 08:43:17;;;;;;;57.15;8.35;;;;;;;10.12;100.00;101401.97;5054062;28;20040;-76
2021/12/30 08:45:43;;;;;;;61.10;9.68;;;;;;;10.13;100.00;101402.78;5053530;28;20060;-78
2021/12/30 08:48:09;;;;;;;51.03;7.10;;;;;;;10.15;100.00;101415.00;5053290;28;20060;-75
2021/12/30 08:50:35;;;;;;;50.58;7.20;;;;;;;10.18;100.00;101406.78;5053415;28;20382;-76
2021/12/30 08:53:01;;;;;;;52.35;8.40;;;;;;;10.16;100.00;101416.69;5053469;28;20105;-76
2021/12/30 08:55:27;;;;;;;54.33;7.68;;;;;;;10.21;100.00;101416.31;5051692;28;20523;-77
2021/12/30 08:57:52;;;;;;;54.05;8.30;;;;;;;10.22;100.00;101418.84;5051724;28;20161;-75
2021/12/30 09:00:25;;;;;;;51.95;7.82;;;;;;;10.22;100.00;101421.50;5053474;28;20068;-75
2021/12/30 09:02:52;;;;;;;47.90;6.47;;;;;;;10.24;100.00;101405.47;5053441;28;20185;-76
2021/12/30 09:05:18;;;;;;;56.25;8.48;;;;;;;10.28;100.00;101422.84;5053504;28;20145;-76
2021/12/30 09:07:43;;;;;;;49.40;7.43;;;;;;;10.30;100.00;101420.91;5053493;28;20515;-78
2021/12/30 09:10:11;;;;;;;60.72;8.05;;;;;;;10.33;100.00;101420.69;5052999;28;20099;-78
2021/12/30 09:12:38;;;;;;;54.60;9.57;;;;;;;10.35;100.00;101424.06;5053195;28;20117;-76
2021/12/30 09:15:05;;;;;;;54.47;7.03;;;;;;;10.41;100.00;101428.06;5053344;28;20197;-77
2021/12/30 09:17:31;;;;;;;51.42;7.00;;;;;;;10.43;100.00;101427.94;5053079;28;20445;-76
2021/12/30 09:19:57;;;;;;;47.90;6.60;;;;;;;10.41;100.00;101444.03;5053237;28;20025;-75
2021/12/30 09:22:23;;;;;;;34.92;5.93;;;;;;;10.43;100.00;101434.09;5053445;28;20055;-74
2021/12/30 09:24:49;;;;;;;51.97;7.43;;;;;;;10.47;100.00;101445.34;5052937;28;20029;-75
2021/12/30 09:27:14;;;;;;;57.70;6.57;;;;;;;10.50;100.00;101437.13;5053347;28;20029;-76
2021/12/30 09:29:39;;;;;;;51.88;6.97;;;;;;;10.47;100.00;101437.38;5051391;28;20036;-75
2021/12/30 09:32:05;;;;;;;41.20;6.85;;;;;;;10.48;100.00;101420.41;5052947;28;20036;-74
2021/12/30 09:34:30;;;;;;;46.90;6.40;;;;;;;10.46;100.00;101441.81;5051529;28;20492;-75
2021/12/30 09:36:56;;;;;;;52.75;7.22;;;;;;;10.46;100.00;101431.19;5052755;28;20041;-76
2021/12/30 09:39:21;;;;;;;47.45;7.15;;;;;;;10.48;100.00;101444.34;5052006;28;20203;-74
2021/12/30 09:41:47;;;;;;;41.25;6.65;;;;;;;10.47;100.00;101442.69;5052834;28;20354;-75
2021/12/30 09:44:15;;;;;;;29.42;6.00;;;;;;;10.43;100.00;101442.06;5051526;28;20453;-73
2021/12/30 09:46:41;;;;;;;45.17;6.72;;;;;;;10.44;100.00;101451.75;5052297;28;20139;-75
2021/12/30 09:49:09;;;;;;;48.03;6.65;;;;;;;10.45;100.00;101457.91;5052340;28;20154;-76
2021/12/30 09:51:35;;;;;;;39.60;6.10;;;;;;;10.44;100.00;101459.72;5052873;28;20032;-78
2021/12/30 09:54:03;;;;;;;42.33;6.85;;;;;;;10.47;100.00;101454.16;5052479;28;20061;-75
2021/12/30 09:56:29;;;;;;;45.92;6.65;;;;;;;10.52;100.00;101435.16;5052976;28;20128;-76
2021/12/30 09:58:55;;;;;;;48.65;6.90;;;;;;;10.52;100.00;101441.31;5052976;28;20037;-76
2021/12/30 10:01:21;;;;;;;55.20;7.40;;;;;;;10.53;100.00;101453.66;5050791;28;20444;-76
2021/12/30 10:03:46;;;;;;;46.42;7.47;;;;;;;10.58;100.00;101459.47;5050980;28;20041;-76
2021/12/30 10:06:16;;;;;;;44.10;6.63;;;;;;;10.63;100.00;101452.91;5052248;28;20032;-76
2021/12/30 10:08:53;;;;;;;33.72;6.03;;;;;;;10.68;100.00;101427.63;5052383;28;20059;-77
2021/12/30 10:11:18;;;;;;;41.40;6.43;;;;;;;10.69;100.00;101447.09;5052788;28;20041;-76
2021/12/30 10:13:56;;;;;;;32.85;6.60;;;;;;;10.72;100.00;101450.38;5052283;28;20381;-76
2021/12/30 10:16:23;;;;;;;39.38;6.80;;;;;;;10.77;100.00;101447.31;5052277;28;20029;-76
2021/12/30 10:18:50;;;;;;;41.78;6.15;;;;;;;10.82;100.00;101434.47;5051783;28;20025;-79
2021/12/30 10:21:22;;;;;;;33.05;5.20;;;;;;;10.84;100.00;101467.16;5052024;28;20029;-78
2021/12/30 10:23:54;;;;;;;31.33;5.45;;;;;;;10.80;100.00;101452.41;5050625;28;20462;-75
2021/12/30 10:26:20;;;;;;;44.60;5.78;;;;;;;10.76;100.00;101467.78;5052276;28;20021;-77
2021/12/30 10:28:49;;;;;;;41.63;6.90;;;;;;;10.76;100.00;101448.28;5052077;28;20040;-76
2021/12/30 10:31:17;;;;;;;32.85;5.30;;;;;;;10.76;100.00;101458.94;5052181;28;20075;-76
2021/12/30 10:33:52;;;;;;;28.80;5.35;;;;;;;10.76;100.00;101459.81;5052092;28;20025;-76
2021/12/30 10:36:30;;;;;;;34.45;5.45;;;;;;;10.76;100.00;101466.91;5052400;28;20029;-79
2021/12/30 10:39:16;;;;;;;29.83;5.70;;;;;;;10.74;100.00;101460.88;5050433;28;20478;-76
2021/12/30 10:41:41;;;;;;;32.92;5.40;;;;;;;10.71;100.00;101464.63;5051845;28;20029;-78
2021/12/30 10:44:06;;;;;;;30.83;5.63;;;;;;;10.72;100.00;101457.53;5050186;28;20044;-78
2021/12/30 10:46:32;;;;;;;33.05;5.35;;;;;;;10.71;100.00;101472.63;5051454;28;20048;-78
2021/12/30 10:49:08;;;;;;;37.78;5.70;;;;;;;10.71;100.00;101469.97;5051468;28;20029;-77
2021/12/30 10:51:49;;;;;;;28.80;5.97;;;;;;;10.72;100.00;101479.66;5051416;28;20113;-77
2021/12/30 10:54:27;;;;;;;34.90;6.18;;;;;;;10.73;100.00;101478.69;5050843;28;20055;-77
2021/12/30 10:56:59;;;;;;;29.75;5.53;;;;;;;10.73;100.00;101481.34;5049314;28;20148;-77
2021/12/30 10:59:27;;;;;;;33.53;6.43;;;;;;;10.72;100.00;101481.47;5051095;28;20025;-77
2021/12/30 11:01:54;;;;;;;39.42;6.13;;;;;;;10.76;100.00;101474.91;5050788;28;20036;-79
2021/12/30 11:04:21;;;;;;;41.47;5.80;;;;;;;10.76;100.00;101486.41;5051059;28;20108;-77
2021/12/30 11:06:47;;;;;;;36.40;6.85;;;;;;;10.77;100.00;101493.41;5049437;28;20456;-76
2021/12/30 11:09:20;;;;;;;32.20;6.05;;;;;;;10.79;100.00;101503.94;5051226;28;20041;-76